createdAt,value
2023-02-23T00:00:35.616Z,9.01
2023-02-23T00:03:04.340Z,9.01
2023-02-23T00:05:37.144Z,9.03
2023-02-23T00:08:05.270Z,9.01
2023-02-23T00:10:33.512Z,8.97
2023-02-23T00:13:01.549Z,8.97
2023-02-23T00:15:30.518Z,9.00
2023-02-23T00:17:58.730Z,9.00
2023-02-23T00:20:27.558Z,9.01
2023-02-23T00:22:56.398Z,9.01
2023-02-23T00:25:24.947Z,9.01
2023-02-23T00:27:52.630Z,9.00
2023-02-23T00:30:21.346Z,8.97
2023-02-23T00:32:52.372Z,8.98
2023-02-23T00:35:20.176Z,8.95
2023-02-23T00:37:49.545Z,8.95
2023-02-23T00:40:20.806Z,9.02
2023-02-23T00:42:49.845Z,8.98
2023-02-23T00:45:17.481Z,9.01
2023-02-23T00:47:48.348Z,9.00
2023-02-23T00:50:19.224Z,8.99
2023-02-23T00:52:47.180Z,8.98
2023-02-23T00:55:15.969Z,9.01
2023-02-23T00:57:43.625Z,9.01
2023-02-23T01:00:20.077Z,9.03
2023-02-23T01:02:48.804Z,9.06
2023-02-23T01:05:18.068Z,9.07
2023-02-23T01:07:47.276Z,9.10
2023-02-23T01:10:20.116Z,9.10
2023-02-23T01:12:50.134Z,9.13
2023-02-23T01:15:19.013Z,9.13
2023-02-23T01:17:47.600Z,9.14
2023-02-23T01:20:19.122Z,9.14
2023-02-23T01:22:49.306Z,9.11
2023-02-23T01:25:17.620Z,9.12
2023-02-23T01:27:46.107Z,9.12
2023-02-23T01:30:15.975Z,9.11
2023-02-23T01:32:44.847Z,9.14
2023-02-23T01:35:13.466Z,9.11
2023-02-23T01:37:44.010Z,9.06
2023-02-23T01:40:15.855Z,9.06
2023-02-23T01:42:46.166Z,9.05
2023-02-23T01:45:25.640Z,9.04
2023-02-23T01:47:55.800Z,9.06
2023-02-23T01:50:25.468Z,9.07
2023-02-23T01:52:56.631Z,9.11
2023-02-23T01:55:28.987Z,9.11
2023-02-23T01:58:04.042Z,9.14
2023-02-23T02:00:36.470Z,9.14
2023-02-23T02:03:12.061Z,9.15
2023-02-23T02:05:40.914Z,9.14
2023-02-23T02:08:11.510Z,9.17
2023-02-23T02:10:45.737Z,9.18
2023-02-23T02:13:21.717Z,9.19
2023-02-23T02:16:13.389Z,9.21
2023-02-23T02:18:55.114Z,9.19
2023-02-23T02:21:40.061Z,9.21
2023-02-23T02:24:47.423Z,9.21
2023-02-23T02:27:26.771Z,9.18
2023-02-23T02:30:39.336Z,9.19
2023-02-23T02:33:55.442Z,9.23
2023-02-23T02:36:59.481Z,9.22
2023-02-23T02:39:36.538Z,9.17
2023-02-23T02:42:17.972Z,9.15
2023-02-23T02:44:53.393Z,9.15
2023-02-23T02:47:27.939Z,9.13
2023-02-23T02:50:04.185Z,9.17
2023-02-23T02:52:40.109Z,9.18
2023-02-23T02:55:16.663Z,9.19
2023-02-23T02:57:47.057Z,9.18
2023-02-23T03:00:36.947Z,9.20
2023-02-23T03:03:22.113Z,9.19
2023-02-23T03:06:12.707Z,9.19
2023-02-23T03:09:07.093Z,9.22
2023-02-23T03:11:58.612Z,9.21
2023-02-23T03:14:51.962Z,9.23
2023-02-23T03:17:48.922Z,9.18
2023-02-23T03:20:44.159Z,9.22
2023-02-23T03:23:38.113Z,9.21
2023-02-23T03:26:30.920Z,9.21
2023-02-23T03:29:23.000Z,9.17
2023-02-23T03:32:18.212Z,9.20
2023-02-23T03:35:10.470Z,9.18
2023-02-23T03:38:00.766Z,9.19
2023-02-23T03:40:51.915Z,9.18
2023-02-23T03:43:45.124Z,9.17
2023-02-23T03:46:32.747Z,9.19
2023-02-23T03:49:22.732Z,9.19
2023-02-23T03:52:12.288Z,9.14
2023-02-23T03:55:03.623Z,9.13
2023-02-23T03:57:52.863Z,9.06
2023-02-23T04:00:44.940Z,9.04
2023-02-23T04:03:33.781Z,9.02
2023-02-23T04:06:20.472Z,8.99
2023-02-23T04:09:08.753Z,9.00
2023-02-23T04:12:03.600Z,8.95
2023-02-23T04:14:36.423Z,8.96
2023-02-23T04:17:06.245Z,8.98
2023-02-23T04:19:33.774Z,8.99
2023-02-23T04:22:01.338Z,9.02
2023-02-23T04:24:29.637Z,9.03
2023-02-23T04:26:57.151Z,9.05
2023-02-23T04:29:25.022Z,9.05
2023-02-23T04:31:54.074Z,9.02
2023-02-23T04:34:23.018Z,9.03
2023-02-23T04:36:51.225Z,9.03
2023-02-23T04:39:18.923Z,9.03
2023-02-23T04:41:48.875Z,9.02
2023-02-23T04:44:16.413Z,9.02
2023-02-23T04:46:44.304Z,8.99
2023-02-23T04:49:12.208Z,8.98
2023-02-23T04:51:41.084Z,8.95
2023-02-23T04:54:10.370Z,8.95
2023-02-23T04:56:39.307Z,8.93
2023-02-23T04:59:06.834Z,8.92
2023-02-23T05:01:34.479Z,8.92
2023-02-23T05:04:02.087Z,8.93
2023-02-23T05:06:31.859Z,8.92
2023-02-23T05:09:00.799Z,8.92
2023-02-23T05:11:28.335Z,8.93
2023-02-23T05:13:56.168Z,8.98
2023-02-23T05:16:23.735Z,9.01
2023-02-23T05:18:52.111Z,9.00
2023-02-23T05:21:19.868Z,9.02
2023-02-23T05:23:47.851Z,9.02
2023-02-23T05:26:16.758Z,9.04
2023-02-23T05:28:44.538Z,9.03
2023-02-23T05:31:12.493Z,9.04
2023-02-23T05:33:42.493Z,9.02
2023-02-23T05:36:11.899Z,9.04
2023-02-23T05:38:39.811Z,9.05
2023-02-23T05:41:07.956Z,9.05
2023-02-23T05:43:36.850Z,9.05
2023-02-23T05:46:07.603Z,9.03
2023-02-23T05:48:35.674Z,9.01
2023-02-23T05:51:03.627Z,8.99
2023-02-23T05:53:31.300Z,8.99
2023-02-23T05:55:58.933Z,9.00
2023-02-23T05:58:26.566Z,8.99
2023-02-23T06:00:55.632Z,8.94
2023-02-23T06:03:23.550Z,8.89
2023-02-23T06:05:52.024Z,8.91
2023-02-23T06:08:20.108Z,8.92
2023-02-23T06:10:48.324Z,8.92
2023-02-23T06:13:16.282Z,8.95
2023-02-23T06:15:45.105Z,8.96
2023-02-23T06:18:14.106Z,8.98
2023-02-23T06:20:41.804Z,8.99
2023-02-23T06:23:09.354Z,8.99
2023-02-23T06:25:36.882Z,8.97
2023-02-23T06:28:05.613Z,8.96
2023-02-23T06:30:33.153Z,8.97
2023-02-23T06:33:00.973Z,9.01
2023-02-23T06:35:30.145Z,9.00
2023-02-23T06:37:57.775Z,9.00
2023-02-23T06:40:25.666Z,8.96
2023-02-23T06:42:53.593Z,8.95
2023-02-23T06:45:21.166Z,8.91
2023-02-23T06:47:48.901Z,8.89
2023-02-23T06:50:16.900Z,8.94
2023-02-23T06:52:45.964Z,9.03
2023-02-23T06:55:14.342Z,9.11
2023-02-23T06:57:42.540Z,9.17
2023-02-23T07:00:12.566Z,9.21
2023-02-23T07:02:40.232Z,9.68
2023-02-23T07:05:08.351Z,10.03
2023-02-23T07:07:35.975Z,9.90
2023-02-23T07:10:05.396Z,9.83
2023-02-23T07:12:33.400Z,9.77
2023-02-23T07:15:01.204Z,9.74
2023-02-23T07:17:28.928Z,9.68
2023-02-23T07:19:56.498Z,9.68
2023-02-23T07:22:25.279Z,9.72
2023-02-23T07:24:52.790Z,9.71
2023-02-23T07:27:21.717Z,9.70
2023-02-23T07:29:49.230Z,9.70
2023-02-23T07:32:16.934Z,9.62
2023-02-23T07:34:45.808Z,9.65
2023-02-23T07:37:13.338Z,9.66
2023-02-23T07:39:40.876Z,9.66
2023-02-23T07:42:08.407Z,9.63
2023-02-23T07:44:38.113Z,9.63
2023-02-23T07:47:05.790Z,9.63
2023-02-23T07:49:34.208Z,9.71
2023-02-23T07:52:01.836Z,9.75
2023-02-23T07:54:29.869Z,9.78
2023-02-23T07:56:57.537Z,9.82
2023-02-23T07:59:25.285Z,9.84
2023-02-23T08:01:54.194Z,9.88
2023-02-23T08:04:21.848Z,9.96
2023-02-23T08:06:49.401Z,10.02
2023-02-23T08:09:16.929Z,10.08
2023-02-23T08:11:45.014Z,10.12
2023-02-23T08:14:12.980Z,10.18
2023-02-23T08:16:40.613Z,10.28
2023-02-23T08:19:10.987Z,10.34
2023-02-23T08:21:38.752Z,10.39
2023-02-23T08:24:07.327Z,10.46
2023-02-23T08:26:36.582Z,10.51
2023-02-23T08:29:04.187Z,10.59
2023-02-23T08:31:31.947Z,10.70
2023-02-23T08:34:00.021Z,10.72
2023-02-23T08:36:29.384Z,10.74
2023-02-23T08:38:57.426Z,10.77
2023-02-23T08:41:25.488Z,10.78
2023-02-23T08:43:53.044Z,10.93
2023-02-23T08:46:22.192Z,11.01
2023-02-23T08:48:49.737Z,11.08
2023-02-23T08:51:17.395Z,11.16
2023-02-23T08:53:48.862Z,11.26
2023-02-23T08:56:16.394Z,11.36
2023-02-23T08:58:44.577Z,11.45
2023-02-23T09:01:18.848Z,11.67
2023-02-23T09:03:46.705Z,11.81
2023-02-23T09:06:17.929Z,11.97
2023-02-23T09:08:45.738Z,12.11
2023-02-23T09:11:14.581Z,12.24
2023-02-23T09:13:42.190Z,12.30
2023-02-23T09:16:10.028Z,12.42
2023-02-23T09:18:38.731Z,12.59
2023-02-23T09:21:08.461Z,12.70
2023-02-23T09:23:37.039Z,12.66
2023-02-23T09:26:05.470Z,12.73
2023-02-23T09:28:34.920Z,12.92
2023-02-23T09:31:07.355Z,13.11
2023-02-23T09:33:35.026Z,13.12
2023-02-23T09:36:05.852Z,13.27
2023-02-23T09:38:33.432Z,13.40
2023-02-23T09:41:01.002Z,13.62
2023-02-23T09:43:34.587Z,13.80
2023-02-23T09:46:09.994Z,13.97
2023-02-23T09:48:37.607Z,14.21
2023-02-23T09:51:09.479Z,14.40
2023-02-23T09:53:40.690Z,14.55
2023-02-23T09:56:14.708Z,14.76
2023-02-23T09:58:42.634Z,14.93
2023-02-23T10:01:50.480Z,15.02
2023-02-23T10:04:23.602Z,14.92
2023-02-23T10:06:57.190Z,14.80
2023-02-23T10:09:33.000Z,14.61
2023-02-23T10:12:08.385Z,14.19
2023-02-23T10:14:57.160Z,14.21
2023-02-23T10:17:36.446Z,14.27
2023-02-23T10:20:13.958Z,14.33
2023-02-23T10:22:42.139Z,14.34
2023-02-23T10:25:14.221Z,14.51
2023-02-23T10:27:45.056Z,14.36
2023-02-23T10:30:20.731Z,14.42
2023-02-23T10:32:55.170Z,14.24
2023-02-23T10:35:24.478Z,14.01
2023-02-23T10:37:53.722Z,14.10
2023-02-23T10:40:24.404Z,14.14
2023-02-23T10:42:53.357Z,14.02
2023-02-23T10:45:24.562Z,14.14
2023-02-23T10:47:57.985Z,13.95
2023-02-23T10:50:28.892Z,13.78
2023-02-23T10:53:00.879Z,13.75
2023-02-23T10:55:30.296Z,13.76
2023-02-23T10:58:16.865Z,13.79
2023-02-23T11:00:53.430Z,13.96
2023-02-23T11:03:28.677Z,14.02
2023-02-23T11:05:56.827Z,14.20
2023-02-23T11:08:29.242Z,14.20
2023-02-23T11:10:59.345Z,14.38
2023-02-23T11:13:29.592Z,14.14
2023-02-23T11:16:02.323Z,14.08
2023-02-23T11:18:32.140Z,14.17
2023-02-23T11:21:00.173Z,13.94
2023-02-23T11:23:30.752Z,13.83
2023-02-23T11:26:01.147Z,13.84
2023-02-23T11:28:32.500Z,13.86
2023-02-23T11:31:05.669Z,13.87
2023-02-23T11:33:37.205Z,13.96
2023-02-23T11:36:26.481Z,13.63
2023-02-23T11:39:03.128Z,13.59
2023-02-23T11:41:31.732Z,13.74
2023-02-23T11:44:02.841Z,13.84
2023-02-23T11:46:33.790Z,13.98
2023-02-23T11:49:06.669Z,13.87
2023-02-23T11:51:36.787Z,14.05
2023-02-23T11:54:06.053Z,14.12
2023-02-23T11:56:36.084Z,13.99
2023-02-23T11:59:08.279Z,14.00
2023-02-23T12:01:43.906Z,14.01
2023-02-23T12:04:26.285Z,13.76
2023-02-23T12:07:25.683Z,13.80
2023-02-23T12:10:00.264Z,13.89
2023-02-23T12:12:30.806Z,13.95
2023-02-23T12:15:03.348Z,13.96
2023-02-23T12:17:37.485Z,13.83
2023-02-23T12:20:13.430Z,13.95
2023-02-23T12:22:45.951Z,14.09
2023-02-23T12:25:22.929Z,14.09
2023-02-23T12:28:05.090Z,14.16
2023-02-23T12:30:44.848Z,14.17
2023-02-23T12:33:18.085Z,14.21
2023-02-23T12:35:55.374Z,14.09
2023-02-23T12:38:30.834Z,14.02
2023-02-23T12:41:06.517Z,14.07
2023-02-23T12:43:40.694Z,14.12
2023-02-23T12:46:13.894Z,14.21
2023-02-23T12:48:50.609Z,14.25
2023-02-23T12:51:28.528Z,14.36
2023-02-23T12:53:56.162Z,14.51
2023-02-23T12:56:36.475Z,14.67
2023-02-23T12:59:21.819Z,14.67
2023-02-23T13:01:54.279Z,14.77
2023-02-23T13:04:39.882Z,14.82
2023-02-23T13:07:18.011Z,14.84
2023-02-23T13:09:56.520Z,14.92
2023-02-23T13:12:32.498Z,14.79
2023-02-23T13:15:10.945Z,14.96
2023-02-23T13:17:44.551Z,14.98
2023-02-23T13:20:19.616Z,15.14
2023-02-23T13:22:52.214Z,15.18
2023-02-23T13:25:34.614Z,15.32
2023-02-23T13:28:02.994Z,15.46
2023-02-23T13:30:33.283Z,15.22
2023-02-23T13:33:04.830Z,15.42
2023-02-23T13:35:36.568Z,15.46
2023-02-23T13:38:15.332Z,15.29
2023-02-23T13:40:48.511Z,15.17
2023-02-23T13:43:23.252Z,15.07
2023-02-23T13:46:06.118Z,14.92
2023-02-23T13:48:56.026Z,14.74
2023-02-23T13:51:35.488Z,14.76
2023-02-23T13:54:22.824Z,14.52
2023-02-23T13:56:54.150Z,14.42
2023-02-23T13:59:24.329Z,14.56
2023-02-23T14:01:54.197Z,14.56
2023-02-23T14:04:24.978Z,14.58
2023-02-23T14:06:56.583Z,14.96
2023-02-23T14:09:31.154Z,15.20
2023-02-23T14:12:06.085Z,15.44
2023-02-23T14:14:45.478Z,15.69
2023-02-23T14:17:51.744Z,15.90
2023-02-23T14:20:37.046Z,16.17
2023-02-23T14:23:41.267Z,16.13
2023-02-23T14:26:17.574Z,15.90
2023-02-23T14:28:50.298Z,15.74
2023-02-23T14:31:22.475Z,15.37
2023-02-23T14:33:57.450Z,15.33
2023-02-23T14:36:36.984Z,15.28
2023-02-23T14:39:10.023Z,15.31
2023-02-23T14:41:46.357Z,15.22
2023-02-23T14:44:28.190Z,14.95
2023-02-23T14:47:01.386Z,15.06
2023-02-23T14:49:32.621Z,15.01
2023-02-23T14:52:07.398Z,14.90
2023-02-23T14:54:36.643Z,14.59
2023-02-23T14:57:07.242Z,14.48
2023-02-23T14:59:39.328Z,14.29
2023-02-23T15:02:11.596Z,14.12
2023-02-23T15:04:39.732Z,13.99
2023-02-23T15:07:08.657Z,13.95
2023-02-23T15:09:41.798Z,13.81
2023-02-23T15:12:20.207Z,13.81
2023-02-23T15:14:50.580Z,13.83
2023-02-23T15:17:21.872Z,13.84
2023-02-23T15:20:00.056Z,13.82
2023-02-23T15:22:36.275Z,13.90
2023-02-23T15:25:14.522Z,13.93
2023-02-23T15:27:45.518Z,13.95
2023-02-23T15:30:23.658Z,13.93
2023-02-23T15:33:01.215Z,13.91
2023-02-23T15:35:30.207Z,13.84
2023-02-23T15:38:13.990Z,13.87
2023-02-23T15:40:46.712Z,13.79
2023-02-23T15:43:15.791Z,13.72
2023-02-23T15:45:49.394Z,13.67
2023-02-23T15:48:20.785Z,13.65
2023-02-23T15:50:50.986Z,13.62
2023-02-23T15:53:28.909Z,13.57
2023-02-23T15:56:00.835Z,13.52
2023-02-23T15:58:31.819Z,13.49
2023-02-23T16:01:05.638Z,13.42
2023-02-23T16:03:36.892Z,13.36
2023-02-23T16:06:06.926Z,13.34
2023-02-23T16:08:36.894Z,13.27
2023-02-23T16:11:11.858Z,13.24
2023-02-23T16:13:44.560Z,13.20
2023-02-23T16:16:20.204Z,13.20
2023-02-23T16:18:53.984Z,13.17
2023-02-23T16:21:23.445Z,13.13
2023-02-23T16:23:53.756Z,13.14
2023-02-23T16:26:25.729Z,13.12
2023-02-23T16:28:59.606Z,13.09
2023-02-23T16:31:43.414Z,13.04
2023-02-23T16:34:24.636Z,13.00
2023-02-23T16:36:57.644Z,12.96
2023-02-23T16:39:29.141Z,12.92
2023-02-23T16:41:58.551Z,12.87
2023-02-23T16:44:41.408Z,12.84
2023-02-23T16:47:36.147Z,12.82
2023-02-23T16:50:20.231Z,12.78
2023-02-23T16:52:51.723Z,12.76
2023-02-23T16:55:25.370Z,12.74
2023-02-23T16:57:55.436Z,12.69
2023-02-23T17:00:27.013Z,12.63
2023-02-23T17:02:55.685Z,12.64
2023-02-23T17:05:24.474Z,12.62
2023-02-23T17:07:52.942Z,12.60
2023-02-23T17:10:26.695Z,12.63
2023-02-23T17:12:55.738Z,12.66
2023-02-23T17:15:27.451Z,12.65
2023-02-23T17:17:56.089Z,12.54
2023-02-23T17:20:25.906Z,12.50
2023-02-23T17:22:54.872Z,12.49
2023-02-23T17:25:26.442Z,12.45
2023-02-23T17:27:54.385Z,12.42
2023-02-23T17:30:22.996Z,12.37
2023-02-23T17:32:53.156Z,12.33
2023-02-23T17:35:21.021Z,12.30
2023-02-23T17:37:48.686Z,12.27
2023-02-23T17:40:18.390Z,12.19
2023-02-23T17:42:45.979Z,12.11
2023-02-23T17:45:13.570Z,12.01
2023-02-23T17:47:42.552Z,11.97
2023-02-23T17:50:12.521Z,11.93
2023-02-23T17:52:40.088Z,11.91
2023-02-23T17:55:08.785Z,11.92
2023-02-23T17:57:36.686Z,11.90
2023-02-23T18:00:06.840Z,11.91
2023-02-23T18:02:39.562Z,11.89
2023-02-23T18:05:08.123Z,11.83
2023-02-23T18:07:37.669Z,11.80
2023-02-23T18:10:05.932Z,11.80
2023-02-23T18:12:34.045Z,11.79
2023-02-23T18:15:01.649Z,11.76
2023-02-23T18:17:32.422Z,11.70
2023-02-23T18:20:00.308Z,11.63
2023-02-23T18:22:28.262Z,11.63
2023-02-23T18:24:58.238Z,11.61
2023-02-23T18:27:26.133Z,11.58
2023-02-23T18:29:53.746Z,11.52
2023-02-23T18:32:21.529Z,11.55
2023-02-23T18:34:49.316Z,11.55
2023-02-23T18:37:25.436Z,11.52
2023-02-23T18:39:54.370Z,11.44
2023-02-23T18:42:23.405Z,11.43
2023-02-23T18:44:50.986Z,11.43
2023-02-23T18:47:19.173Z,11.45
2023-02-23T18:49:47.628Z,11.47
2023-02-23T18:52:15.389Z,11.43
2023-02-23T18:54:42.952Z,11.44
2023-02-23T18:57:10.550Z,11.38
2023-02-23T18:59:39.489Z,11.34
2023-02-23T19:02:07.131Z,11.27
2023-02-23T19:04:36.691Z,11.23
2023-02-23T19:07:04.346Z,11.21
2023-02-23T19:09:32.490Z,11.20
2023-02-23T19:12:00.241Z,11.22
2023-02-23T19:14:47.824Z,11.23
2023-02-23T19:17:16.687Z,11.21
2023-02-23T19:19:44.540Z,11.16
2023-02-23T19:22:12.184Z,11.14
2023-02-23T19:24:40.638Z,11.11
2023-02-23T19:27:09.973Z,11.03
2023-02-23T19:29:37.808Z,10.98
2023-02-23T19:32:06.173Z,10.95
2023-02-23T19:34:35.234Z,10.91
2023-02-23T19:37:02.947Z,10.91
2023-02-23T19:39:30.950Z,10.89
2023-02-23T19:41:58.584Z,10.88
2023-02-23T19:44:26.176Z,10.86
2023-02-23T19:46:53.902Z,10.83
2023-02-23T19:49:21.520Z,10.81
2023-02-23T19:51:50.670Z,10.83
2023-02-23T19:54:18.242Z,10.86
2023-02-23T19:56:46.027Z,10.87
2023-02-23T19:59:13.710Z,10.81
2023-02-23T20:01:43.443Z,10.76
2023-02-23T20:04:10.988Z,10.77
2023-02-23T20:06:44.531Z,10.76
2023-02-23T20:09:14.163Z,10.74
2023-02-23T20:11:42.582Z,10.68
2023-02-23T20:14:12.273Z,10.64
2023-02-23T20:16:39.947Z,10.61
2023-02-23T20:19:07.776Z,10.58
2023-02-23T20:21:36.629Z,10.59
2023-02-23T20:24:05.559Z,10.62
2023-02-23T20:26:36.853Z,10.62
2023-02-23T20:29:06.677Z,10.61
2023-02-23T20:31:36.458Z,10.61
2023-02-23T20:34:07.493Z,10.56
2023-02-23T20:36:35.314Z,10.51
2023-02-23T20:39:03.682Z,10.52
2023-02-23T20:41:31.940Z,10.53
2023-02-23T20:44:01.675Z,10.51
2023-02-23T20:46:30.547Z,10.53
2023-02-23T20:48:59.413Z,10.49
2023-02-23T20:51:27.596Z,10.48
2023-02-23T20:53:55.669Z,10.47
2023-02-23T20:56:23.540Z,10.39
2023-02-23T20:58:54.520Z,10.36
2023-02-23T21:01:26.190Z,10.36
2023-02-23T21:03:55.087Z,10.41
2023-02-23T21:06:24.426Z,10.44
2023-02-23T21:08:55.773Z,10.47
2023-02-23T21:11:26.418Z,10.52
2023-02-23T21:13:54.121Z,10.55
2023-02-23T21:16:24.467Z,10.56
2023-02-23T21:19:03.845Z,10.57
2023-02-23T21:21:32.733Z,10.58
2023-02-23T21:24:00.700Z,10.55
2023-02-23T21:26:30.379Z,10.55
2023-02-23T21:28:58.227Z,10.53
2023-02-23T21:31:27.379Z,10.51
2023-02-23T21:33:55.405Z,10.50
2023-02-23T21:36:23.229Z,10.50
2023-02-23T21:38:51.243Z,10.49
2023-02-23T21:41:19.174Z,10.45
2023-02-23T21:43:47.671Z,10.50
2023-02-23T21:46:17.207Z,10.52
2023-02-23T21:48:46.125Z,10.51
2023-02-23T21:51:15.987Z,10.49
2023-02-23T21:53:45.190Z,10.48
2023-02-23T21:56:14.780Z,10.52
2023-02-23T21:58:46.195Z,10.55
2023-02-23T22:01:16.096Z,10.55
2023-02-23T22:03:44.985Z,10.55
2023-02-23T22:06:14.770Z,10.56
2023-02-23T22:08:44.724Z,10.57
2023-02-23T22:11:17.480Z,10.55
2023-02-23T22:13:45.639Z,10.50
2023-02-23T22:16:14.604Z,10.49
2023-02-23T22:18:42.956Z,10.48
2023-02-23T22:21:11.593Z,10.45
2023-02-23T22:23:41.640Z,10.48
2023-02-23T22:26:09.550Z,10.49
2023-02-23T22:28:37.567Z,10.47
2023-02-23T22:31:08.165Z,10.43
2023-02-23T22:33:36.527Z,10.36
2023-02-23T22:36:06.645Z,10.34
2023-02-23T22:38:34.701Z,10.35
2023-02-23T22:41:07.209Z,10.38
2023-02-23T22:43:35.075Z,10.36
2023-02-23T22:46:02.714Z,10.36
2023-02-23T22:48:30.319Z,10.39
2023-02-23T22:50:58.855Z,10.42
2023-02-23T22:53:27.500Z,10.41
2023-02-23T22:55:57.228Z,10.42
2023-02-23T22:58:27.300Z,10.38
2023-02-23T23:01:04.639Z,10.37
2023-02-23T23:03:35.352Z,10.36
2023-02-23T23:06:03.785Z,10.39
2023-02-23T23:08:36.312Z,10.40
2023-02-23T23:11:09.280Z,10.42
2023-02-23T23:13:45.064Z,10.40
2023-02-23T23:16:28.916Z,10.57
2023-02-23T23:19:02.227Z,10.56
2023-02-23T23:21:32.335Z,10.52
2023-02-23T23:24:02.032Z,10.51
2023-02-23T23:26:31.709Z,10.47
2023-02-23T23:29:04.644Z,10.39
2023-02-23T23:31:34.610Z,10.38
2023-02-23T23:34:04.801Z,10.40
2023-02-23T23:36:37.123Z,10.34
2023-02-23T23:39:06.014Z,10.34
2023-02-23T23:41:35.226Z,10.28
2023-02-23T23:44:05.724Z,10.28
2023-02-23T23:46:37.408Z,10.19
2023-02-23T23:49:08.160Z,10.22
2023-02-23T23:51:38.714Z,10.22
2023-02-23T23:54:08.533Z,10.12
2023-02-23T23:56:37.264Z,10.07
2023-02-23T23:59:08.087Z,10.06
